createdAt,value
2018-08-13T00:01:27.505Z,3.55
2018-08-13T00:03:55.677Z,3.85
2018-08-13T00:06:23.829Z,3.10
2018-08-13T00:08:51.990Z,4.40
2018-08-13T00:11:20.125Z,3.40
2018-08-13T00:13:48.290Z,3.50
2018-08-13T00:16:16.445Z,3.50
2018-08-13T00:18:44.600Z,3.80
2018-08-13T00:21:12.738Z,3.30
2018-08-13T00:23:40.887Z,3.80
2018-08-13T00:26:09.033Z,3.08
2018-08-13T00:28:37.205Z,2.92
2018-08-13T00:31:05.741Z,3.83
2018-08-13T00:33:33.921Z,3.50
2018-08-13T00:36:02.061Z,3.33
2018-08-13T00:38:30.201Z,3.50
2018-08-13T00:40:58.353Z,3.33
2018-08-13T00:43:26.521Z,3.70
2018-08-13T00:45:54.677Z,3.60
2018-08-13T00:48:22.846Z,3.70
2018-08-13T00:50:51.010Z,4.00
2018-08-13T00:53:19.175Z,3.80
2018-08-13T00:55:47.322Z,3.90
2018-08-13T00:58:15.498Z,4.30
2018-08-13T01:00:43.673Z,3.40
2018-08-13T01:03:11.826Z,3.80
2018-08-13T01:05:39.994Z,3.80
2018-08-13T01:08:08.173Z,4.20
2018-08-13T01:10:36.314Z,3.60
2018-08-13T01:13:04.493Z,3.60
2018-08-13T01:15:32.655Z,3.80
2018-08-13T01:18:00.786Z,3.87
2018-08-13T01:20:28.941Z,4.20
2018-08-13T01:22:57.078Z,3.60
2018-08-13T01:25:25.241Z,3.95
2018-08-13T01:27:53.382Z,3.80
2018-08-13T01:30:21.546Z,3.98
2018-08-13T01:32:49.701Z,3.77
2018-08-13T01:40:13.271Z,4.53
2018-08-13T01:47:37.201Z,2.93
2018-08-13T01:50:07.317Z,3.87
2018-08-13T01:52:35.493Z,3.70
2018-08-13T01:55:04.129Z,4.03
2018-08-13T01:57:32.288Z,4.10
2018-08-13T02:00:00.473Z,4.00
2018-08-13T02:02:28.674Z,4.40
2018-08-13T02:04:56.861Z,4.50
2018-08-13T02:07:25.022Z,4.30
2018-08-13T02:09:53.206Z,3.87
2018-08-13T02:12:21.370Z,4.60
2018-08-13T02:14:49.550Z,3.83
2018-08-13T02:17:17.739Z,4.05
2018-08-13T02:19:45.929Z,4.40
2018-08-13T02:22:14.117Z,4.10
2018-08-13T02:24:42.312Z,4.00
2018-08-13T02:27:10.491Z,3.40
2018-08-13T02:29:38.649Z,3.90
2018-08-13T02:32:06.850Z,3.72
2018-08-13T02:34:35.055Z,3.90
2018-08-13T02:37:03.226Z,3.90
2018-08-13T02:39:31.406Z,4.00
2018-08-13T02:41:59.583Z,4.10
2018-08-13T02:44:27.750Z,4.10
2018-08-13T02:46:55.925Z,3.95
2018-08-13T02:49:24.113Z,4.17
2018-08-13T02:51:52.302Z,3.40
2018-08-13T02:54:20.469Z,3.80
2018-08-13T02:56:48.646Z,4.10
2018-08-13T02:59:16.823Z,4.23
2018-08-13T03:01:44.992Z,4.30
2018-08-13T03:04:13.191Z,4.20
2018-08-13T03:06:41.393Z,4.30
2018-08-13T03:09:10.609Z,4.33
2018-08-13T03:11:38.794Z,4.20
2018-08-13T03:14:06.987Z,4.27
2018-08-13T03:16:35.149Z,4.07
2018-08-13T03:19:03.321Z,4.10
2018-08-13T03:21:31.525Z,4.40
2018-08-13T03:23:59.707Z,4.20
2018-08-13T03:26:27.877Z,4.03
2018-08-13T03:28:56.036Z,4.40
2018-08-13T03:31:24.235Z,4.50
2018-08-13T03:33:52.426Z,4.33
2018-08-13T03:36:20.594Z,4.65
2018-08-13T03:38:48.770Z,4.58
2018-08-13T03:41:16.965Z,4.33
2018-08-13T03:43:45.145Z,4.40
2018-08-13T03:46:13.335Z,4.30
2018-08-13T03:48:41.517Z,3.93
2018-08-13T03:51:09.698Z,3.70
2018-08-13T03:53:37.865Z,4.35
2018-08-13T03:56:06.638Z,4.03
2018-08-13T03:58:34.816Z,4.50
2018-08-13T04:01:03.010Z,4.80
2018-08-13T04:03:31.182Z,4.00
2018-08-13T04:05:59.385Z,4.00
2018-08-13T04:08:27.578Z,4.10
2018-08-13T04:10:55.790Z,4.00
2018-08-13T04:13:23.962Z,3.98
2018-08-13T04:15:52.129Z,4.20
2018-08-13T04:18:20.305Z,4.07
2018-08-13T04:20:48.482Z,4.28
2018-08-13T04:23:16.682Z,4.87
2018-08-13T04:25:44.857Z,4.65
2018-08-13T04:28:13.042Z,4.60
2018-08-13T04:30:41.209Z,4.40
2018-08-13T04:33:09.374Z,4.60
2018-08-13T04:35:37.554Z,4.30
2018-08-13T04:38:05.768Z,4.27
2018-08-13T04:40:33.950Z,4.77
2018-08-13T04:43:02.138Z,4.20
2018-08-13T04:45:30.326Z,4.28
2018-08-13T04:47:58.510Z,4.28
2018-08-13T04:50:26.685Z,4.00
2018-08-13T04:52:54.870Z,4.00
2018-08-13T04:55:23.052Z,4.13
2018-08-13T04:57:51.236Z,4.00
2018-08-13T05:00:19.396Z,4.10
2018-08-13T05:02:47.596Z,4.40
2018-08-13T05:05:15.807Z,4.10
2018-08-13T05:07:43.991Z,4.50
2018-08-13T05:10:12.236Z,4.15
2018-08-13T05:12:41.240Z,3.75
2018-08-13T05:15:10.546Z,4.30
2018-08-13T05:17:38.725Z,4.22
2018-08-13T05:20:08.046Z,4.83
2018-08-13T05:22:36.274Z,4.20
2018-08-13T05:25:05.766Z,4.30
2018-08-13T05:27:33.967Z,4.80
2018-08-13T05:30:02.179Z,4.40
2018-08-13T05:32:30.326Z,4.50
2018-08-13T05:34:58.531Z,4.60
2018-08-13T05:37:26.709Z,4.70
2018-08-13T05:39:54.873Z,4.40
2018-08-13T05:42:23.066Z,5.00
2018-08-13T05:44:51.279Z,4.50
2018-08-13T05:47:19.477Z,5.40
2018-08-13T05:49:47.647Z,4.60
2018-08-13T05:52:15.814Z,3.77
2018-08-13T05:54:44.023Z,4.23
2018-08-13T05:57:12.193Z,4.40
2018-08-13T05:59:40.366Z,4.07
2018-08-13T06:02:08.597Z,4.00
2018-08-13T06:04:36.810Z,4.50
2018-08-13T06:07:05.515Z,4.83
2018-08-13T06:09:33.681Z,5.83
2018-08-13T06:12:01.862Z,5.10
2018-08-13T06:14:30.038Z,4.53
2018-08-13T06:16:58.725Z,4.53
2018-08-13T06:19:26.888Z,5.23
2018-08-13T06:21:55.061Z,4.50
2018-08-13T06:24:23.293Z,4.67
2018-08-13T06:26:51.417Z,4.57
2018-08-13T06:29:19.602Z,4.80
2018-08-13T06:31:47.820Z,4.40
2018-08-13T06:34:16.011Z,4.43
2018-08-13T06:36:44.189Z,4.10
2018-08-13T06:39:12.359Z,4.33
2018-08-13T06:41:40.520Z,4.37
2018-08-13T06:44:08.705Z,4.60
2018-08-13T06:46:37.456Z,4.33
2018-08-13T06:49:06.138Z,4.20
2018-08-13T06:51:34.713Z,4.00
2018-08-13T06:54:02.926Z,4.30
2018-08-13T06:56:31.142Z,4.35
2018-08-13T06:58:59.330Z,4.20
2018-08-13T07:01:27.521Z,4.08
2018-08-13T07:03:55.694Z,3.60
2018-08-13T07:06:23.907Z,4.10
2018-08-13T07:08:52.129Z,3.72
2018-08-13T07:11:20.324Z,3.60
2018-08-13T07:13:48.507Z,3.90
2018-08-13T07:16:16.710Z,3.55
2018-08-13T07:18:44.911Z,3.90
2018-08-13T07:21:13.133Z,3.40
2018-08-13T07:23:41.375Z,3.75
2018-08-13T07:26:09.562Z,4.10
2018-08-13T07:28:37.767Z,3.80
2018-08-13T07:31:05.971Z,3.30
2018-08-13T07:33:34.183Z,3.47
2018-08-13T07:36:02.354Z,3.60
2018-08-13T07:38:30.550Z,3.50
2018-08-13T07:40:58.775Z,3.50
2018-08-13T07:43:26.966Z,3.67
2018-08-13T07:45:55.153Z,3.40
2018-08-13T07:48:23.350Z,3.67
2018-08-13T07:50:51.526Z,3.30
2018-08-13T07:53:19.712Z,3.60
2018-08-13T07:55:47.930Z,3.60
2018-08-13T07:58:16.118Z,3.47
2018-08-13T08:00:44.303Z,3.30
2018-08-13T08:03:12.477Z,3.95
2018-08-13T08:05:40.678Z,3.20
2018-08-13T08:08:09.001Z,3.25
2018-08-13T08:10:37.190Z,3.10
2018-08-13T08:13:05.494Z,3.45
2018-08-13T08:15:33.690Z,3.47
2018-08-13T08:18:01.886Z,3.20
2018-08-13T08:20:30.087Z,3.37
2018-08-13T08:22:58.289Z,3.70
2018-08-13T08:25:26.482Z,3.55
2018-08-13T08:27:54.645Z,3.50
2018-08-13T08:30:22.825Z,3.22
2018-08-13T08:32:51.018Z,3.70
2018-08-13T08:35:19.197Z,3.50
2018-08-13T08:37:47.417Z,3.40
2018-08-13T08:40:18.721Z,3.20
2018-08-13T08:42:47.526Z,3.30
2018-08-13T08:45:20.348Z,3.00
2018-08-13T08:47:48.625Z,2.80
2018-08-13T08:50:16.862Z,2.83
2018-08-13T08:52:46.009Z,3.02
2018-08-13T08:55:14.817Z,3.33
2018-08-13T08:57:43.054Z,2.80
2018-08-13T09:00:15.826Z,3.17
2018-08-13T09:02:44.027Z,3.25
2018-08-13T09:05:12.251Z,3.20
2018-08-13T09:07:41.273Z,2.90
2018-08-13T09:10:09.633Z,2.80
2018-08-13T09:12:38.158Z,3.10
2018-08-13T09:15:07.282Z,2.83
2018-08-13T09:17:46.822Z,3.22
2018-08-13T09:20:26.694Z,2.90
2018-08-13T09:23:06.372Z,3.08
2018-08-13T09:25:46.036Z,2.60
2018-08-13T09:28:25.764Z,3.08
2018-08-13T09:31:05.315Z,2.90
2018-08-13T09:33:44.878Z,2.93
2018-08-13T09:36:13.074Z,2.90
2018-08-13T09:38:41.302Z,2.90
2018-08-13T09:41:09.504Z,3.00
2018-08-13T09:43:37.769Z,3.08
2018-08-13T09:46:06.239Z,3.12
2018-08-13T09:48:34.424Z,2.77
2018-08-13T09:51:02.626Z,3.00
2018-08-13T09:53:30.807Z,2.60
2018-08-13T09:55:58.989Z,3.20
2018-08-13T09:58:27.197Z,3.20
2018-08-13T10:01:00.723Z,3.12
2018-08-13T10:03:28.900Z,2.85
2018-08-13T10:05:57.074Z,3.00
2018-08-13T10:08:25.291Z,2.90
2018-08-13T10:10:53.486Z,3.00
2018-08-13T10:13:21.687Z,3.60
2018-08-13T10:15:49.898Z,3.95
2018-08-13T10:18:18.120Z,3.72
2018-08-13T10:20:46.338Z,3.60
2018-08-13T10:23:14.533Z,3.60
2018-08-13T10:25:42.717Z,3.42
2018-08-13T10:28:10.930Z,3.35
2018-08-13T10:30:39.186Z,3.40
2018-08-13T10:33:07.399Z,3.80
2018-08-13T10:35:35.591Z,3.07
2018-08-13T10:38:03.795Z,3.50
2018-08-13T10:40:31.959Z,3.60
2018-08-13T10:43:00.195Z,3.40
2018-08-13T10:45:28.367Z,3.45
2018-08-13T10:47:56.546Z,3.70
2018-08-13T10:50:24.782Z,3.20
2018-08-13T10:52:53.010Z,3.40
2018-08-13T10:55:21.193Z,3.50
2018-08-13T10:57:49.390Z,3.20
2018-08-13T11:00:17.707Z,3.80
2018-08-13T11:02:45.953Z,3.55
2018-08-13T11:05:14.978Z,3.90
2018-08-13T11:07:43.148Z,3.20
2018-08-13T11:10:12.584Z,3.30
2018-08-13T11:12:40.815Z,3.50
2018-08-13T11:15:16.642Z,3.33
2018-08-13T11:17:44.892Z,3.50
2018-08-13T11:20:13.106Z,3.53
2018-08-13T11:22:42.105Z,3.60
2018-08-13T11:25:12.463Z,3.90
2018-08-13T11:27:40.653Z,3.50
2018-08-13T11:30:13.311Z,3.40
2018-08-13T11:32:41.537Z,3.22
2018-08-13T11:35:09.746Z,3.40
2018-08-13T11:37:37.925Z,3.20
2018-08-13T11:40:09.766Z,3.60
2018-08-13T11:42:37.966Z,3.60
2018-08-13T11:45:06.400Z,3.80
2018-08-13T11:47:35.142Z,3.58
2018-08-13T11:50:04.744Z,3.72
2018-08-13T11:52:32.942Z,3.80
2018-08-13T11:55:01.114Z,3.30
2018-08-13T11:57:29.310Z,3.20
2018-08-13T11:59:57.645Z,3.40
2018-08-13T12:02:25.828Z,2.77
2018-08-13T12:04:54.013Z,2.70
2018-08-13T12:07:22.185Z,3.12
2018-08-13T12:09:50.381Z,2.65
2018-08-13T12:12:18.557Z,2.50
2018-08-13T12:14:46.746Z,2.70
2018-08-13T12:17:14.951Z,2.50
2018-08-13T12:19:43.171Z,2.40
2018-08-13T12:22:11.329Z,2.00
2018-08-13T12:24:39.552Z,1.72
2018-08-13T12:27:07.735Z,1.80
2018-08-13T12:29:35.994Z,2.10
2018-08-13T12:32:04.194Z,2.50
2018-08-13T12:34:32.377Z,2.58
2018-08-13T12:37:06.079Z,2.40
2018-08-13T12:39:34.297Z,2.70
2018-08-13T12:42:02.499Z,2.50
2018-08-13T12:44:30.710Z,2.67
2018-08-13T12:46:58.885Z,2.60
2018-08-13T12:49:27.224Z,2.50
2018-08-13T12:51:55.683Z,2.70
2018-08-13T12:54:23.949Z,2.80
2018-08-13T12:56:52.130Z,2.70
2018-08-13T12:59:20.382Z,3.05
2018-08-13T13:01:48.593Z,2.80
2018-08-13T13:04:23.266Z,2.53
2018-08-13T13:06:51.471Z,2.50
2018-08-13T13:09:19.667Z,2.60
2018-08-13T13:11:47.878Z,2.75
2018-08-13T13:14:16.046Z,2.75
2018-08-13T13:16:44.234Z,2.85
2018-08-13T13:19:12.443Z,2.70
2018-08-13T13:21:40.630Z,2.52
2018-08-13T13:24:08.838Z,2.50
2018-08-13T13:26:37.084Z,2.92
2018-08-13T13:29:05.457Z,3.20
2018-08-13T13:31:33.683Z,2.70
2018-08-13T13:34:01.871Z,2.87
2018-08-13T13:36:30.070Z,2.50
2018-08-13T13:38:58.314Z,2.62
2018-08-13T13:41:26.575Z,2.70
2018-08-13T13:43:54.751Z,2.60
2018-08-13T13:46:23.068Z,3.10
2018-08-13T13:48:51.134Z,3.10
2018-08-13T13:51:19.347Z,3.80
2018-08-13T13:53:47.533Z,3.70
2018-08-13T13:56:15.718Z,3.80
2018-08-13T13:58:43.900Z,4.30
2018-08-13T14:01:12.108Z,3.70
2018-08-13T14:03:40.302Z,4.00
2018-08-13T14:06:08.507Z,4.90
2018-08-13T14:08:36.679Z,4.30
2018-08-13T14:11:04.890Z,5.03
2018-08-13T14:13:39.841Z,5.12
2018-08-13T14:16:08.029Z,4.80
2018-08-13T14:18:36.252Z,5.10
2018-08-13T14:21:04.480Z,4.97
2018-08-13T14:23:32.667Z,4.40
2018-08-13T14:26:00.834Z,4.53
2018-08-13T14:28:29.026Z,4.60
2018-08-13T14:30:57.213Z,4.67
2018-08-13T14:33:25.386Z,4.62
2018-08-13T14:35:53.565Z,4.70
2018-08-13T14:38:21.973Z,4.08
2018-08-13T14:40:50.169Z,4.45
2018-08-13T14:43:18.347Z,4.10
2018-08-13T14:45:46.527Z,4.50
2018-08-13T14:48:14.713Z,4.28
2018-08-13T14:50:42.907Z,4.80
2018-08-13T14:53:11.090Z,5.40
2018-08-13T14:55:39.274Z,4.90
2018-08-13T14:58:07.471Z,4.70
2018-08-13T15:00:37.298Z,5.00
2018-08-13T15:03:09.771Z,4.70
2018-08-13T15:05:38.184Z,4.65
2018-08-13T15:08:06.442Z,4.60
2018-08-13T15:10:34.785Z,4.62
2018-08-13T15:13:03.356Z,4.45
2018-08-13T15:15:31.474Z,4.45
2018-08-13T15:17:59.673Z,5.00
2018-08-13T15:20:29.141Z,4.10
2018-08-13T15:22:57.357Z,4.30
2018-08-13T15:25:25.730Z,3.98
2018-08-13T15:27:54.014Z,3.90
2018-08-13T15:30:22.813Z,4.28
2018-08-13T15:32:51.934Z,4.00
2018-08-13T15:35:20.174Z,3.60
2018-08-13T15:37:48.716Z,3.70
2018-08-13T15:40:16.949Z,3.90
2018-08-13T15:42:45.142Z,3.60
2018-08-13T15:45:16.714Z,3.30
2018-08-13T15:47:45.136Z,3.37
2018-08-13T15:50:15.169Z,3.70
2018-08-13T15:52:43.547Z,3.30
2018-08-13T15:55:11.898Z,2.95
2018-08-13T15:57:40.755Z,2.80
2018-08-13T16:00:10.579Z,2.52
2018-08-13T16:02:38.782Z,2.50
2018-08-13T16:05:08.341Z,2.40
2018-08-13T16:07:36.514Z,2.20
2018-08-13T16:10:07.093Z,2.45
2018-08-13T16:12:35.630Z,2.40
2018-08-13T16:15:04.501Z,2.30
2018-08-13T16:17:32.683Z,3.40
2018-08-13T16:20:00.889Z,2.55
2018-08-13T16:22:29.114Z,2.10
2018-08-13T16:24:57.306Z,2.70
2018-08-13T16:27:25.491Z,2.10
2018-08-13T16:29:53.695Z,2.47
2018-08-13T16:32:21.910Z,2.30
2018-08-13T16:34:50.107Z,2.20
2018-08-13T16:37:18.300Z,2.40
2018-08-13T16:39:46.516Z,2.40
2018-08-13T16:42:14.721Z,2.22
2018-08-13T16:44:42.905Z,2.40
2018-08-13T16:47:11.102Z,2.60
2018-08-13T16:49:39.299Z,2.40
2018-08-13T16:52:07.612Z,2.50
2018-08-13T16:54:35.861Z,2.60
2018-08-13T16:57:04.055Z,2.30
2018-08-13T16:59:32.247Z,2.63
2018-08-13T17:02:00.441Z,2.95
2018-08-13T17:04:28.649Z,2.80
2018-08-13T17:06:56.876Z,2.50
2018-08-13T17:09:25.091Z,2.50
2018-08-13T17:11:53.283Z,2.60
2018-08-13T17:14:21.674Z,2.85
2018-08-13T17:16:49.677Z,2.60
2018-08-13T17:19:17.878Z,2.60
2018-08-13T17:21:46.112Z,3.00
2018-08-13T17:24:14.945Z,2.70
2018-08-13T17:26:43.279Z,2.80
2018-08-13T17:29:11.479Z,2.70
2018-08-13T17:31:39.683Z,2.52
2018-08-13T17:34:09.043Z,2.60
2018-08-13T17:36:37.318Z,2.83
2018-08-13T17:39:11.093Z,2.40
2018-08-13T17:41:39.457Z,2.80
2018-08-13T17:44:07.710Z,3.10
2018-08-13T17:46:36.007Z,2.87
2018-08-13T17:49:04.230Z,2.60
2018-08-13T17:51:32.429Z,2.70
2018-08-13T17:54:00.662Z,2.70
2018-08-13T17:56:28.874Z,2.90
2018-08-13T17:58:57.017Z,2.90
2018-08-13T18:01:25.235Z,2.75
2018-08-13T18:03:53.826Z,3.30
2018-08-13T18:06:22.028Z,3.02
2018-08-13T18:08:50.227Z,3.40
2018-08-13T18:11:18.420Z,3.50
2018-08-13T18:13:46.619Z,3.10
2018-08-13T18:16:14.826Z,3.30
2018-08-13T18:18:43.043Z,3.50
2018-08-13T18:21:11.291Z,3.40
2018-08-13T18:23:39.447Z,3.08
2018-08-13T18:26:07.647Z,2.95
2018-08-13T18:28:35.931Z,2.95
2018-08-13T18:31:04.123Z,2.83
2018-08-13T18:33:32.362Z,3.20
2018-08-13T18:36:00.542Z,2.90
2018-08-13T18:38:28.770Z,3.12
2018-08-13T18:40:56.973Z,2.80
2018-08-13T18:43:25.164Z,2.92
2018-08-13T18:45:53.350Z,3.10
2018-08-13T18:48:21.559Z,2.70
2018-08-13T18:50:49.761Z,3.02
2018-08-13T18:53:17.938Z,2.87
2018-08-13T18:55:46.142Z,3.05
2018-08-13T18:58:14.330Z,3.30
2018-08-13T19:00:43.451Z,2.70
2018-08-13T19:03:11.637Z,2.90
2018-08-13T19:05:39.832Z,3.20
2018-08-13T19:08:08.030Z,3.30
2018-08-13T19:10:36.261Z,3.05
2018-08-13T19:13:04.441Z,3.22
2018-08-13T19:15:32.629Z,3.33
2018-08-13T19:18:00.835Z,3.30
2018-08-13T19:20:29.053Z,3.40
2018-08-13T19:22:57.250Z,3.25
2018-08-13T19:25:27.138Z,3.67
2018-08-13T19:27:55.452Z,3.10
2018-08-13T19:30:24.453Z,3.10
2018-08-13T19:32:53.147Z,3.02
2018-08-13T19:35:21.333Z,3.67
2018-08-13T19:37:49.762Z,3.20
2018-08-13T19:40:20.658Z,3.12
2018-08-13T19:42:49.548Z,3.40
2018-08-13T19:45:18.471Z,3.40
2018-08-13T19:47:47.007Z,3.62
2018-08-13T19:50:15.494Z,3.62
2018-08-13T19:52:44.755Z,3.27
2018-08-13T19:55:13.356Z,4.00
2018-08-13T19:57:41.589Z,3.08
2018-08-13T20:00:15.557Z,3.40
2018-08-13T20:02:43.806Z,3.20
2018-08-13T20:05:12.021Z,3.20
2018-08-13T20:07:40.243Z,3.65
2018-08-13T20:10:10.043Z,2.90
2018-08-13T20:12:38.228Z,3.37
2018-08-13T20:15:06.560Z,3.40
2018-08-13T20:17:34.736Z,3.20
2018-08-13T20:20:02.947Z,3.65
2018-08-13T20:22:31.154Z,3.12
2018-08-13T20:24:59.392Z,3.40
2018-08-13T20:27:27.562Z,3.33
2018-08-13T20:29:55.763Z,3.50
2018-08-13T20:32:23.963Z,3.62
2018-08-13T20:34:52.150Z,3.15
2018-08-13T20:37:20.350Z,3.47
2018-08-13T20:39:48.535Z,3.50
2018-08-13T20:42:16.734Z,3.43
2018-08-13T20:44:44.939Z,3.40
2018-08-13T20:47:13.155Z,3.22
2018-08-13T20:49:41.370Z,3.60
2018-08-13T20:52:09.558Z,3.67
2018-08-13T20:54:37.744Z,3.50
2018-08-13T20:57:06.157Z,3.72
2018-08-13T20:59:34.336Z,3.60
2018-08-13T21:02:02.534Z,3.60
2018-08-13T21:04:30.718Z,3.58
2018-08-13T21:06:58.919Z,3.60
2018-08-13T21:09:27.110Z,3.10
2018-08-13T21:11:55.311Z,3.87
2018-08-13T21:14:23.510Z,4.30
2018-08-13T21:16:51.734Z,4.30
2018-08-13T21:19:19.950Z,3.80
2018-08-13T21:21:48.106Z,3.67
2018-08-13T21:24:16.327Z,3.80
2018-08-13T21:26:44.569Z,3.92
2018-08-13T21:29:12.739Z,4.03
2018-08-13T21:31:41.112Z,3.83
2018-08-13T21:34:09.364Z,4.20
2018-08-13T21:36:37.677Z,3.83
2018-08-13T21:39:07.758Z,4.40
2018-08-13T21:41:35.995Z,4.00
2018-08-13T21:44:04.803Z,3.87
2018-08-13T21:46:33.021Z,3.90
2018-08-13T21:49:01.232Z,4.20
2018-08-13T21:51:29.528Z,3.83
2018-08-13T21:53:57.759Z,3.80
2018-08-13T21:56:25.970Z,3.90
2018-08-13T21:58:54.175Z,4.03
2018-08-13T22:01:27.755Z,3.90
2018-08-13T22:03:55.959Z,4.40
2018-08-13T22:06:24.162Z,3.83
2018-08-13T22:08:52.412Z,4.10
2018-08-13T22:11:20.723Z,4.15
2018-08-13T22:13:48.971Z,4.15
2018-08-13T22:16:17.144Z,4.10
2018-08-13T22:18:45.354Z,3.90
2018-08-13T22:21:13.563Z,4.05
2018-08-13T22:23:53.081Z,3.62
2018-08-13T22:26:21.294Z,3.60
2018-08-13T22:28:49.523Z,4.15
2018-08-13T22:31:17.714Z,4.10
2018-08-13T22:33:45.985Z,3.65
2018-08-13T22:36:14.236Z,4.35
2018-08-13T22:38:42.416Z,3.90
2018-08-13T22:41:10.651Z,3.77
2018-08-13T22:43:38.838Z,4.50
2018-08-13T22:46:07.051Z,4.07
2018-08-13T23:45:18.513Z,4.87
2018-08-13T23:47:46.747Z,6.60
2018-08-13T23:50:16.782Z,6.40
2018-08-13T23:52:45.003Z,5.50
2018-08-13T23:55:22.585Z,5.62
2018-08-13T23:57:50.799Z,5.37
